sensor_id;sensor_type;location;lat;lon;timestamp;temperature;humidity
61255;DHT22;47128;47.530;8.584;2023-03-23T00:02:24;10.30;99.90
61255;DHT22;47128;47.530;8.584;2023-03-23T00:04:51;10.30;99.90
61255;DHT22;47128;47.530;8.584;2023-03-23T00:07:16;10.30;99.90
61255;DHT22;47128;47.530;8.584;2023-03-23T00:09:49;10.30;99.90
61255;DHT22;47128;47.530;8.584;2023-03-23T00:12:20;10.40;99.90
61255;DHT22;47128;47.530;8.584;2023-03-23T00:14:47;10.40;99.90
61255;DHT22;47128;47.530;8.584;2023-03-23T00:17:19;10.30;99.90
61255;DHT22;47128;47.530;8.584;2023-03-23T00:19:44;10.20;99.90
61255;DHT22;47128;47.530;8.584;2023-03-23T00:22:11;10.20;99.90
61255;DHT22;47128;47.530;8.584;2023-03-23T00:24:37;10.10;99.90
61255;DHT22;47128;47.530;8.584;2023-03-23T00:27:03;10.10;99.90
61255;DHT22;47128;47.530;8.584;2023-03-23T00:29:28;10.10;99.90
61255;DHT22;47128;47.530;8.584;2023-03-23T00:31:54;10.10;99.90
61255;DHT22;47128;47.530;8.584;2023-03-23T00:34:22;10.00;99.90
61255;DHT22;47128;47.530;8.584;2023-03-23T00:36:53;10.00;99.90
61255;DHT22;47128;47.530;8.584;2023-03-23T00:39:22;9.90;99.90
61255;DHT22;47128;47.530;8.584;2023-03-23T00:41:50;9.90;99.90
61255;DHT22;47128;47.530;8.584;2023-03-23T00:44:15;9.80;99.90
61255;DHT22;47128;47.530;8.584;2023-03-23T00:46:47;10.00;99.90
61255;DHT22;47128;47.530;8.584;2023-03-23T00:49:14;10.00;99.90
61255;DHT22;47128;47.530;8.584;2023-03-23T00:51:41;9.90;99.90
61255;DHT22;47128;47.530;8.584;2023-03-23T00:54:07;10.00;99.90
61255;DHT22;47128;47.530;8.584;2023-03-23T00:56:33;10.00;99.90
61255;DHT22;47128;47.530;8.584;2023-03-23T00:58:59;10.00;99.90
61255;DHT22;47128;47.530;8.584;2023-03-23T01:01:25;10.10;99.90
61255;DHT22;47128;47.530;8.584;2023-03-23T01:03:50;10.10;99.90
61255;DHT22;47128;47.530;8.584;2023-03-23T01:06:16;10.20;99.90
61255;DHT22;47128;47.530;8.584;2023-03-23T01:08:42;10.10;99.90
61255;DHT22;47128;47.530;8.584;2023-03-23T01:11:12;10.10;99.90
61255;DHT22;47128;47.530;8.584;2023-03-23T01:13:38;10.20;99.90
61255;DHT22;47128;47.530;8.584;2023-03-23T01:16:05;10.20;99.90
61255;DHT22;47128;47.530;8.584;2023-03-23T01:18:30;10.20;99.90
61255;DHT22;47128;47.530;8.584;2023-03-23T01:20:56;10.40;99.90
61255;DHT22;47128;47.530;8.584;2023-03-23T01:23:22;10.30;99.90
61255;DHT22;47128;47.530;8.584;2023-03-23T01:25:48;10.30;99.90
61255;DHT22;47128;47.530;8.584;2023-03-23T01:28:14;10.30;99.90
61255;DHT22;47128;47.530;8.584;2023-03-23T01:30:40;10.30;99.90
61255;DHT22;47128;47.530;8.584;2023-03-23T01:33:06;10.30;99.90
61255;DHT22;47128;47.530;8.584;2023-03-23T01:35:32;10.40;99.90
61255;DHT22;47128;47.530;8.584;2023-03-23T01:37:57;10.30;99.90
61255;DHT22;47128;47.530;8.584;2023-03-23T01:40:23;10.30;99.90
61255;DHT22;47128;47.530;8.584;2023-03-23T01:42:48;10.30;99.90
61255;DHT22;47128;47.530;8.584;2023-03-23T01:45:21;10.40;99.90
61255;DHT22;47128;47.530;8.584;2023-03-23T01:50:29;10.40;99.90
61255;DHT22;47128;47.530;8.584;2023-03-23T01:52:55;10.50;99.90
61255;DHT22;47128;47.530;8.584;2023-03-23T01:55:23;10.80;99.90
61255;DHT22;47128;47.530;8.584;2023-03-23T01:57:49;10.50;99.90
61255;DHT22;47128;47.530;8.584;2023-03-23T02:00:15;10.50;99.90
61255;DHT22;47128;47.530;8.584;2023-03-23T02:02:41;10.70;99.90
61255;DHT22;47128;47.530;8.584;2023-03-23T02:05:09;10.40;99.90
61255;DHT22;47128;47.530;8.584;2023-03-23T02:07:36;10.40;99.90
61255;DHT22;47128;47.530;8.584;2023-03-23T02:10:02;10.40;99.90
61255;DHT22;47128;47.530;8.584;2023-03-23T02:12:28;10.50;99.90
61255;DHT22;47128;47.530;8.584;2023-03-23T02:14:53;10.50;99.90
61255;DHT22;47128;47.530;8.584;2023-03-23T02:24:53;10.30;99.90
61255;DHT22;47128;47.530;8.584;2023-03-23T02:27:36;10.40;99.90
61255;DHT22;47128;47.530;8.584;2023-03-23T02:35:39;10.50;99.90
61255;DHT22;47128;47.530;8.584;2023-03-23T02:38:14;10.50;99.90
61255;DHT22;47128;47.530;8.584;2023-03-23T02:40:47;10.40;99.90
61255;DHT22;47128;47.530;8.584;2023-03-23T02:43:15;10.40;99.90
61255;DHT22;47128;47.530;8.584;2023-03-23T02:45:41;10.40;99.90
61255;DHT22;47128;47.530;8.584;2023-03-23T02:48:07;10.50;99.90
61255;DHT22;47128;47.530;8.584;2023-03-23T02:50:33;10.50;99.90
61255;DHT22;47128;47.530;8.584;2023-03-23T02:53:00;10.50;99.90
61255;DHT22;47128;47.530;8.584;2023-03-23T02:55:27;10.50;99.90
61255;DHT22;47128;47.530;8.584;2023-03-23T02:57:53;10.50;99.90
61255;DHT22;47128;47.530;8.584;2023-03-23T03:00:20;10.60;99.90
61255;DHT22;47128;47.530;8.584;2023-03-23T03:02:50;10.70;99.90
61255;DHT22;47128;47.530;8.584;2023-03-23T03:07:49;10.70;99.90
61255;DHT22;47128;47.530;8.584;2023-03-23T03:10:22;10.70;99.90
61255;DHT22;47128;47.530;8.584;2023-03-23T03:12:51;10.60;99.90
61255;DHT22;47128;47.530;8.584;2023-03-23T03:15:26;10.70;99.90
61255;DHT22;47128;47.530;8.584;2023-03-23T03:17:55;10.70;99.90
61255;DHT22;47128;47.530;8.584;2023-03-23T03:20:23;10.70;99.90
61255;DHT22;47128;47.530;8.584;2023-03-23T03:22:53;10.70;99.90
61255;DHT22;47128;47.530;8.584;2023-03-23T03:25:19;10.70;99.90
61255;DHT22;47128;47.530;8.584;2023-03-23T03:27:45;10.70;99.90
61255;DHT22;47128;47.530;8.584;2023-03-23T03:30:15;10.70;99.90
61255;DHT22;47128;47.530;8.584;2023-03-23T03:32:46;10.60;99.90
61255;DHT22;47128;47.530;8.584;2023-03-23T03:35:14;10.70;99.90
61255;DHT22;47128;47.530;8.584;2023-03-23T03:37:40;10.70;99.90
61255;DHT22;47128;47.530;8.584;2023-03-23T03:40:07;10.70;99.90
61255;DHT22;47128;47.530;8.584;2023-03-23T03:42:39;10.60;99.90
61255;DHT22;47128;47.530;8.584;2023-03-23T03:45:06;10.60;99.90
61255;DHT22;47128;47.530;8.584;2023-03-23T03:47:32;10.60;99.90
61255;DHT22;47128;47.530;8.584;2023-03-23T03:49:58;10.50;99.90
61255;DHT22;47128;47.530;8.584;2023-03-23T03:52:23;10.60;99.90
61255;DHT22;47128;47.530;8.584;2023-03-23T03:54:49;10.60;99.90
61255;DHT22;47128;47.530;8.584;2023-03-23T03:57:14;10.50;99.90
61255;DHT22;47128;47.530;8.584;2023-03-23T03:59:42;10.60;99.90
61255;DHT22;47128;47.530;8.584;2023-03-23T04:02:09;10.60;99.90
61255;DHT22;47128;47.530;8.584;2023-03-23T04:04:35;10.70;99.90
61255;DHT22;47128;47.530;8.584;2023-03-23T04:07:00;10.70;99.90
61255;DHT22;47128;47.530;8.584;2023-03-23T04:09:28;10.80;99.90
61255;DHT22;47128;47.530;8.584;2023-03-23T04:11:53;10.80;99.90
61255;DHT22;47128;47.530;8.584;2023-03-23T04:14:19;10.80;99.90
61255;DHT22;47128;47.530;8.584;2023-03-23T04:16:45;10.70;99.90
61255;DHT22;47128;47.530;8.584;2023-03-23T04:19:10;10.80;99.90
61255;DHT22;47128;47.530;8.584;2023-03-23T04:21:37;10.80;99.90
61255;DHT22;47128;47.530;8.584;2023-03-23T04:24:03;10.80;99.90
61255;DHT22;47128;47.530;8.584;2023-03-23T04:26:29;10.70;99.90
61255;DHT22;47128;47.530;8.584;2023-03-23T04:28:55;10.80;99.90
61255;DHT22;47128;47.530;8.584;2023-03-23T04:31:21;10.80;99.90
61255;DHT22;47128;47.530;8.584;2023-03-23T04:33:50;10.80;99.90
61255;DHT22;47128;47.530;8.584;2023-03-23T04:36:17;10.80;99.90
61255;DHT22;47128;47.530;8.584;2023-03-23T04:38:43;10.70;99.90
61255;DHT22;47128;47.530;8.584;2023-03-23T04:41:09;10.70;99.90
61255;DHT22;47128;47.530;8.584;2023-03-23T04:43:34;10.70;99.90
61255;DHT22;47128;47.530;8.584;2023-03-23T04:46:06;10.70;99.90
61255;DHT22;47128;47.530;8.584;2023-03-23T04:48:34;10.70;99.90
61255;DHT22;47128;47.530;8.584;2023-03-23T04:51:03;10.80;99.90
61255;DHT22;47128;47.530;8.584;2023-03-23T04:53:29;10.70;99.90
61255;DHT22;47128;47.530;8.584;2023-03-23T04:55:55;10.70;99.90
61255;DHT22;47128;47.530;8.584;2023-03-23T04:58:21;10.80;99.90
61255;DHT22;47128;47.530;8.584;2023-03-23T05:00:49;10.80;99.90
61255;DHT22;47128;47.530;8.584;2023-03-23T05:03:17;10.80;99.90
61255;DHT22;47128;47.530;8.584;2023-03-23T05:05:44;10.80;99.90
61255;DHT22;47128;47.530;8.584;2023-03-23T05:08:13;10.80;99.90
61255;DHT22;47128;47.530;8.584;2023-03-23T05:10:38;10.80;99.90
61255;DHT22;47128;47.530;8.584;2023-03-23T05:13:04;10.80;99.90
61255;DHT22;47128;47.530;8.584;2023-03-23T05:15:30;10.80;99.90
61255;DHT22;47128;47.530;8.584;2023-03-23T05:17:56;10.80;99.90
61255;DHT22;47128;47.530;8.584;2023-03-23T05:20:21;10.90;99.90
61255;DHT22;47128;47.530;8.584;2023-03-23T05:22:48;10.90;99.90
61255;DHT22;47128;47.530;8.584;2023-03-23T05:27:40;10.90;99.90
61255;DHT22;47128;47.530;8.584;2023-03-23T05:30:08;11.20;99.90
61255;DHT22;47128;47.530;8.584;2023-03-23T05:32:34;11.10;99.90
61255;DHT22;47128;47.530;8.584;2023-03-23T05:34:59;11.00;99.90
61255;DHT22;47128;47.530;8.584;2023-03-23T05:37:26;11.00;99.90
61255;DHT22;47128;47.530;8.584;2023-03-23T05:39:55;11.00;99.90
61255;DHT22;47128;47.530;8.584;2023-03-23T05:42:21;11.20;99.90
61255;DHT22;47128;47.530;8.584;2023-03-23T05:44:49;11.20;99.90
61255;DHT22;47128;47.530;8.584;2023-03-23T05:47:14;11.10;99.90
61255;DHT22;47128;47.530;8.584;2023-03-23T05:49:40;11.30;99.90
61255;DHT22;47128;47.530;8.584;2023-03-23T05:52:05;11.10;99.90
61255;DHT22;47128;47.530;8.584;2023-03-23T05:54:31;11.30;99.90
61255;DHT22;47128;47.530;8.584;2023-03-23T05:56:56;11.50;99.90
61255;DHT22;47128;47.530;8.584;2023-03-23T05:59:22;11.60;99.90
61255;DHT22;47128;47.530;8.584;2023-03-23T06:01:48;11.60;99.90
61255;DHT22;47128;47.530;8.584;2023-03-23T06:04:15;11.70;99.90
61255;DHT22;47128;47.530;8.584;2023-03-23T06:06:40;11.70;99.90
61255;DHT22;47128;47.530;8.584;2023-03-23T06:09:07;11.90;99.90
61255;DHT22;47128;47.530;8.584;2023-03-23T06:11:32;12.00;98.70
61255;DHT22;47128;47.530;8.584;2023-03-23T06:13:59;12.20;97.30
61255;DHT22;47128;47.530;8.584;2023-03-23T06:16:24;12.40;98.30
61255;DHT22;47128;47.530;8.584;2023-03-23T06:18:50;12.40;97.80
61255;DHT22;47128;47.530;8.584;2023-03-23T06:21:16;12.30;98.20
61255;DHT22;47128;47.530;8.584;2023-03-23T06:26:46;12.50;99.80
61255;DHT22;47128;47.530;8.584;2023-03-23T06:29:13;12.60;99.20
61255;DHT22;47128;47.530;8.584;2023-03-23T06:31:40;12.70;97.00
61255;DHT22;47128;47.530;8.584;2023-03-23T06:34:08;12.80;96.60
61255;DHT22;47128;47.530;8.584;2023-03-23T06:36:35;13.10;98.60
61255;DHT22;47128;47.530;8.584;2023-03-23T06:41:29;13.40;93.40
61255;DHT22;47128;47.530;8.584;2023-03-23T06:43:55;13.50;94.70
61255;DHT22;47128;47.530;8.584;2023-03-23T06:46:21;13.70;92.90
61255;DHT22;47128;47.530;8.584;2023-03-23T06:54:53;14.30;91.70
61255;DHT22;47128;47.530;8.584;2023-03-23T06:57:19;14.40;91.10
61255;DHT22;47128;47.530;8.584;2023-03-23T07:02:48;14.60;90.60
61255;DHT22;47128;47.530;8.584;2023-03-23T07:11:20;14.80;90.50
61255;DHT22;47128;47.530;8.584;2023-03-23T07:13:46;15.00;88.80
61255;DHT22;47128;47.530;8.584;2023-03-23T07:24:45;15.60;87.30
61255;DHT22;47128;47.530;8.584;2023-03-23T07:30:23;15.60;90.60
61255;DHT22;47128;47.530;8.584;2023-03-23T07:35:59;15.20;91.90
61255;DHT22;47128;47.530;8.584;2023-03-23T07:44:33;14.80;92.30
61255;DHT22;47128;47.530;8.584;2023-03-23T07:50:02;14.70;93.00
61255;DHT22;47128;47.530;8.584;2023-03-23T07:52:27;14.70;93.30
61255;DHT22;47128;47.530;8.584;2023-03-23T08:01:00;14.60;93.60
61255;DHT22;47128;47.530;8.584;2023-03-23T08:09:33;14.80;89.30
61255;DHT22;47128;47.530;8.584;2023-03-23T08:15:07;15.30;87.10
61255;DHT22;47128;47.530;8.584;2023-03-23T08:20:37;15.60;85.20
61255;DHT22;47128;47.530;8.584;2023-03-23T08:23:03;15.70;85.00
61255;DHT22;47128;47.530;8.584;2023-03-23T08:25:30;15.70;85.00
61255;DHT22;47128;47.530;8.584;2023-03-23T08:28:00;15.80;84.90
61255;DHT22;47128;47.530;8.584;2023-03-23T08:30:27;16.00;84.70
61255;DHT22;47128;47.530;8.584;2023-03-23T08:32:56;16.10;83.80
61255;DHT22;47128;47.530;8.584;2023-03-23T08:44:31;16.50;81.70
61255;DHT22;47128;47.530;8.584;2023-03-23T08:46:57;16.70;84.60
61255;DHT22;47128;47.530;8.584;2023-03-23T08:49:23;16.80;82.50
61255;DHT22;47128;47.530;8.584;2023-03-23T08:51:49;16.80;80.20
61255;DHT22;47128;47.530;8.584;2023-03-23T08:54:18;16.90;79.70
61255;DHT22;47128;47.530;8.584;2023-03-23T08:59:47;17.30;79.00
61255;DHT22;47128;47.530;8.584;2023-03-23T09:02:12;17.10;78.40
61255;DHT22;47128;47.530;8.584;2023-03-23T09:04:38;17.00;78.80
61255;DHT22;47128;47.530;8.584;2023-03-23T09:07:05;16.90;78.60
61255;DHT22;47128;47.530;8.584;2023-03-23T09:09:31;17.00;78.60
61255;DHT22;47128;47.530;8.584;2023-03-23T09:11:58;17.00;78.30
61255;DHT22;47128;47.530;8.584;2023-03-23T09:14:25;17.00;77.40
61255;DHT22;47128;47.530;8.584;2023-03-23T09:16:52;17.00;77.80
61255;DHT22;47128;47.530;8.584;2023-03-23T09:19:18;17.00;77.50
61255;DHT22;47128;47.530;8.584;2023-03-23T09:21:43;17.00;77.30
61255;DHT22;47128;47.530;8.584;2023-03-23T09:27:29;17.20;76.90
61255;DHT22;47128;47.530;8.584;2023-03-23T09:32:59;17.30;76.90
61255;DHT22;47128;47.530;8.584;2023-03-23T09:35:26;17.30;76.60
61255;DHT22;47128;47.530;8.584;2023-03-23T09:52:00;17.80;75.90
61255;DHT22;47128;47.530;8.584;2023-03-23T09:54:34;18.30;75.00
61255;DHT22;47128;47.530;8.584;2023-03-23T09:57:03;18.80;73.20
61255;DHT22;47128;47.530;8.584;2023-03-23T09:59:34;19.00;74.10
61255;DHT22;47128;47.530;8.584;2023-03-23T10:02:22;19.00;75.90
61255;DHT22;47128;47.530;8.584;2023-03-23T10:04:51;18.70;75.40
61255;DHT22;47128;47.530;8.584;2023-03-23T10:07:18;18.20;73.30
61255;DHT22;47128;47.530;8.584;2023-03-23T10:09:45;18.00;73.70
61255;DHT22;47128;47.530;8.584;2023-03-23T10:17:27;17.30;75.20
61255;DHT22;47128;47.530;8.584;2023-03-23T10:26:21;17.30;75.50
61255;DHT22;47128;47.530;8.584;2023-03-23T10:28:54;17.10;76.30
61255;DHT22;47128;47.530;8.584;2023-03-23T10:31:32;17.00;75.70
61255;DHT22;47128;47.530;8.584;2023-03-23T10:34:01;17.10;76.20
61255;DHT22;47128;47.530;8.584;2023-03-23T10:48:24;17.50;77.40
61255;DHT22;47128;47.530;8.584;2023-03-23T10:50:52;17.50;77.30
61255;DHT22;47128;47.530;8.584;2023-03-23T10:53:21;17.80;79.40
61255;DHT22;47128;47.530;8.584;2023-03-23T10:55:47;18.00;75.70
61255;DHT22;47128;47.530;8.584;2023-03-23T11:01:17;17.90;74.40
61255;DHT22;47128;47.530;8.584;2023-03-23T11:03:45;18.00;74.70
61255;DHT22;47128;47.530;8.584;2023-03-23T11:12:20;17.90;74.40
61255;DHT22;47128;47.530;8.584;2023-03-23T11:17:59;18.40;74.20
61255;DHT22;47128;47.530;8.584;2023-03-23T11:23:41;18.80;73.00
61255;DHT22;47128;47.530;8.584;2023-03-23T11:26:24;18.70;73.90
61255;DHT22;47128;47.530;8.584;2023-03-23T11:28:53;18.50;73.60
61255;DHT22;47128;47.530;8.584;2023-03-23T11:32:01;18.30;73.80
61255;DHT22;47128;47.530;8.584;2023-03-23T11:34:23;18.20;74.20
61255;DHT22;47128;47.530;8.584;2023-03-23T11:41:48;18.20;74.90
61255;DHT22;47128;47.530;8.584;2023-03-23T11:44:13;18.70;74.30
61255;DHT22;47128;47.530;8.584;2023-03-23T11:46:59;19.00;73.90
61255;DHT22;47128;47.530;8.584;2023-03-23T11:58:17;18.90;73.80
61255;DHT22;47128;47.530;8.584;2023-03-23T12:00:55;18.80;72.70
61255;DHT22;47128;47.530;8.584;2023-03-23T12:06:28;18.70;72.60
61255;DHT22;47128;47.530;8.584;2023-03-23T12:26:50;19.40;72.60
61255;DHT22;47128;47.530;8.584;2023-03-23T12:32:47;19.80;71.50
61255;DHT22;47128;47.530;8.584;2023-03-23T12:44:22;19.60;71.20
61255;DHT22;47128;47.530;8.584;2023-03-23T12:46:57;19.30;70.80
61255;DHT22;47128;47.530;8.584;2023-03-23T12:55:50;19.10;72.40
61255;DHT22;47128;47.530;8.584;2023-03-23T12:58:23;19.10;72.30
61255;DHT22;47128;47.530;8.584;2023-03-23T13:05:48;18.70;74.70
61255;DHT22;47128;47.530;8.584;2023-03-23T13:08:28;18.60;75.90
61255;DHT22;47128;47.530;8.584;2023-03-23T13:10:59;18.50;75.80
61255;DHT22;47128;47.530;8.584;2023-03-23T13:16:37;18.40;75.90
61255;DHT22;47128;47.530;8.584;2023-03-23T13:21:31;18.20;76.10
61255;DHT22;47128;47.530;8.584;2023-03-23T13:27:01;18.00;74.80
61255;DHT22;47128;47.530;8.584;2023-03-23T13:34:56;17.90;81.90
61255;DHT22;47128;47.530;8.584;2023-03-23T13:37:24;17.70;82.00
61255;DHT22;47128;47.530;8.584;2023-03-23T13:42:22;17.80;86.10
61255;DHT22;47128;47.530;8.584;2023-03-23T13:49:59;17.50;85.80
61255;DHT22;47128;47.530;8.584;2023-03-23T14:14:51;17.80;78.60
61255;DHT22;47128;47.530;8.584;2023-03-23T14:17:28;17.80;79.50
61255;DHT22;47128;47.530;8.584;2023-03-23T14:19:57;17.90;79.30
61255;DHT22;47128;47.530;8.584;2023-03-23T14:25:27;18.00;81.80
61255;DHT22;47128;47.530;8.584;2023-03-23T14:30:56;18.10;78.90
61255;DHT22;47128;47.530;8.584;2023-03-23T14:33:24;18.20;76.90
61255;DHT22;47128;47.530;8.584;2023-03-23T14:35:50;18.20;75.60
61255;DHT22;47128;47.530;8.584;2023-03-23T14:41:04;18.30;76.70
61255;DHT22;47128;47.530;8.584;2023-03-23T14:43:48;18.30;74.60
61255;DHT22;47128;47.530;8.584;2023-03-23T14:52:21;18.40;75.60
61255;DHT22;47128;47.530;8.584;2023-03-23T14:54:48;18.40;75.70
61255;DHT22;47128;47.530;8.584;2023-03-23T14:59:41;18.30;76.00
61255;DHT22;47128;47.530;8.584;2023-03-23T15:02:09;18.30;75.00
61255;DHT22;47128;47.530;8.584;2023-03-23T15:04:37;18.40;75.00
61255;DHT22;47128;47.530;8.584;2023-03-23T15:07:03;18.40;74.80
61255;DHT22;47128;47.530;8.584;2023-03-23T15:09:30;18.40;75.00
61255;DHT22;47128;47.530;8.584;2023-03-23T15:12:00;18.40;75.10
61255;DHT22;47128;47.530;8.584;2023-03-23T15:14:32;18.30;74.90
61255;DHT22;47128;47.530;8.584;2023-03-23T15:17:01;18.20;74.30
61255;DHT22;47128;47.530;8.584;2023-03-23T15:19:33;18.10;74.80
61255;DHT22;47128;47.530;8.584;2023-03-23T15:24:39;18.00;74.60
61255;DHT22;47128;47.530;8.584;2023-03-23T15:29:34;17.90;74.60
61255;DHT22;47128;47.530;8.584;2023-03-23T15:32:00;17.90;75.40
61255;DHT22;47128;47.530;8.584;2023-03-23T15:37:32;17.90;75.30
61255;DHT22;47128;47.530;8.584;2023-03-23T15:39:59;17.90;74.90
61255;DHT22;47128;47.530;8.584;2023-03-23T15:44:55;17.90;75.90
61255;DHT22;47128;47.530;8.584;2023-03-23T15:47:21;17.90;75.90
61255;DHT22;47128;47.530;8.584;2023-03-23T15:50:01;17.90;74.90
61255;DHT22;47128;47.530;8.584;2023-03-23T15:52:27;17.90;75.20
61255;DHT22;47128;47.530;8.584;2023-03-23T15:54:53;17.80;74.60
61255;DHT22;47128;47.530;8.584;2023-03-23T15:57:19;17.80;74.20
61255;DHT22;47128;47.530;8.584;2023-03-23T15:59:45;17.70;74.50
61255;DHT22;47128;47.530;8.584;2023-03-23T16:05:02;17.70;75.80
61255;DHT22;47128;47.530;8.584;2023-03-23T16:07:28;17.60;75.40
61255;DHT22;47128;47.530;8.584;2023-03-23T16:12:56;17.60;74.30
61255;DHT22;47128;47.530;8.584;2023-03-23T16:21:30;17.60;74.50
61255;DHT22;47128;47.530;8.584;2023-03-23T16:23:56;17.60;75.50
61255;DHT22;47128;47.530;8.584;2023-03-23T16:26:22;17.60;74.90
61255;DHT22;47128;47.530;8.584;2023-03-23T16:28:47;17.50;74.40
61255;DHT22;47128;47.530;8.584;2023-03-23T16:31:13;17.50;74.80
61255;DHT22;47128;47.530;8.584;2023-03-23T16:36:41;17.60;83.70
61255;DHT22;47128;47.530;8.584;2023-03-23T16:39:12;17.40;74.70
61255;DHT22;47128;47.530;8.584;2023-03-23T16:41:37;17.30;76.60
61255;DHT22;47128;47.530;8.584;2023-03-23T16:44:03;17.30;78.60
61255;DHT22;47128;47.530;8.584;2023-03-23T16:46:29;17.20;78.00
61255;DHT22;47128;47.530;8.584;2023-03-23T16:48:54;17.10;86.70
61255;DHT22;47128;47.530;8.584;2023-03-23T16:51:20;17.10;78.90
61255;DHT22;47128;47.530;8.584;2023-03-23T16:53:46;17.20;82.20
61255;DHT22;47128;47.530;8.584;2023-03-23T16:56:11;17.20;79.90
61255;DHT22;47128;47.530;8.584;2023-03-23T16:58:38;17.20;82.50
61255;DHT22;47128;47.530;8.584;2023-03-23T17:01:03;17.10;86.20
61255;DHT22;47128;47.530;8.584;2023-03-23T17:03:30;17.00;83.10
61255;DHT22;47128;47.530;8.584;2023-03-23T17:05:55;16.90;84.30
61255;DHT22;47128;47.530;8.584;2023-03-23T17:08:25;17.00;83.30
61255;DHT22;47128;47.530;8.584;2023-03-23T17:20:00;16.90;86.80
61255;DHT22;47128;47.530;8.584;2023-03-23T17:22:26;16.90;89.40
61255;DHT22;47128;47.530;8.584;2023-03-23T17:24:52;16.90;84.60
61255;DHT22;47128;47.530;8.584;2023-03-23T17:27:18;16.90;84.70
61255;DHT22;47128;47.530;8.584;2023-03-23T17:29:45;17.00;84.20
61255;DHT22;47128;47.530;8.584;2023-03-23T17:32:11;17.00;83.70
61255;DHT22;47128;47.530;8.584;2023-03-23T17:34:37;16.90;85.60
61255;DHT22;47128;47.530;8.584;2023-03-23T17:37:03;16.80;83.70
61255;DHT22;47128;47.530;8.584;2023-03-23T17:39:29;16.90;82.70
61255;DHT22;47128;47.530;8.584;2023-03-23T17:41:56;16.80;86.40
61255;DHT22;47128;47.530;8.584;2023-03-23T17:44:22;16.60;86.60
61255;DHT22;47128;47.530;8.584;2023-03-23T17:46:48;16.50;80.40
61255;DHT22;47128;47.530;8.584;2023-03-23T17:49:14;16.50;79.90
61255;DHT22;47128;47.530;8.584;2023-03-23T17:51:40;16.50;79.90
61255;DHT22;47128;47.530;8.584;2023-03-23T17:54:05;16.30;87.00
61255;DHT22;47128;47.530;8.584;2023-03-23T17:56:31;16.30;87.90
61255;DHT22;47128;47.530;8.584;2023-03-23T17:58:56;16.00;86.70
61255;DHT22;47128;47.530;8.584;2023-03-23T18:01:22;16.00;87.00
61255;DHT22;47128;47.530;8.584;2023-03-23T18:03:47;16.00;84.60
61255;DHT22;47128;47.530;8.584;2023-03-23T18:06:13;16.00;87.40
61255;DHT22;47128;47.530;8.584;2023-03-23T18:08:39;15.90;87.20
61255;DHT22;47128;47.530;8.584;2023-03-23T18:11:05;15.80;83.80
61255;DHT22;47128;47.530;8.584;2023-03-23T18:13:32;15.90;87.50
61255;DHT22;47128;47.530;8.584;2023-03-23T18:15:58;15.80;86.10
61255;DHT22;47128;47.530;8.584;2023-03-23T18:18:23;15.80;87.90
61255;DHT22;47128;47.530;8.584;2023-03-23T18:20:52;15.60;88.90
61255;DHT22;47128;47.530;8.584;2023-03-23T18:23:18;15.60;90.00
61255;DHT22;47128;47.530;8.584;2023-03-23T18:25:44;15.40;90.40
61255;DHT22;47128;47.530;8.584;2023-03-23T18:28:10;15.40;89.40
61255;DHT22;47128;47.530;8.584;2023-03-23T18:30:35;15.40;87.20
61255;DHT22;47128;47.530;8.584;2023-03-23T18:33:01;15.40;89.50
61255;DHT22;47128;47.530;8.584;2023-03-23T18:35:27;15.40;90.40
61255;DHT22;47128;47.530;8.584;2023-03-23T18:37:53;15.30;90.50
61255;DHT22;47128;47.530;8.584;2023-03-23T18:40:19;15.30;91.10
61255;DHT22;47128;47.530;8.584;2023-03-23T18:42:45;15.10;91.70
61255;DHT22;47128;47.530;8.584;2023-03-23T18:45:11;15.00;91.70
61255;DHT22;47128;47.530;8.584;2023-03-23T18:47:37;15.00;92.20
61255;DHT22;47128;47.530;8.584;2023-03-23T18:50:07;14.90;90.90
61255;DHT22;47128;47.530;8.584;2023-03-23T18:52:34;14.90;91.80
61255;DHT22;47128;47.530;8.584;2023-03-23T18:55:00;15.20;87.50
61255;DHT22;47128;47.530;8.584;2023-03-23T18:57:26;15.20;90.40
61255;DHT22;47128;47.530;8.584;2023-03-23T18:59:52;15.10;90.60
61255;DHT22;47128;47.530;8.584;2023-03-23T19:02:18;15.10;91.00
61255;DHT22;47128;47.530;8.584;2023-03-23T19:07:47;14.90;90.50
61255;DHT22;47128;47.530;8.584;2023-03-23T19:10:13;14.90;90.40
61255;DHT22;47128;47.530;8.584;2023-03-23T19:12:38;14.90;90.10
61255;DHT22;47128;47.530;8.584;2023-03-23T19:15:04;15.00;90.80
61255;DHT22;47128;47.530;8.584;2023-03-23T19:17:31;14.90;91.00
61255;DHT22;47128;47.530;8.584;2023-03-23T19:19:56;14.70;91.70
61255;DHT22;47128;47.530;8.584;2023-03-23T19:22:22;14.70;92.50
61255;DHT22;47128;47.530;8.584;2023-03-23T19:24:47;14.60;92.70
61255;DHT22;47128;47.530;8.584;2023-03-23T19:27:13;14.50;93.00
61255;DHT22;47128;47.530;8.584;2023-03-23T19:29:40;14.50;95.00
61255;DHT22;47128;47.530;8.584;2023-03-23T19:32:06;14.50;95.40
61255;DHT22;47128;47.530;8.584;2023-03-23T19:34:32;14.50;95.50
61255;DHT22;47128;47.530;8.584;2023-03-23T19:36:58;14.40;93.80
61255;DHT22;47128;47.530;8.584;2023-03-23T19:39:23;14.30;93.80
61255;DHT22;47128;47.530;8.584;2023-03-23T19:41:48;14.30;93.00
61255;DHT22;47128;47.530;8.584;2023-03-23T19:44:15;14.30;93.40
61255;DHT22;47128;47.530;8.584;2023-03-23T19:46:41;14.40;93.40
61255;DHT22;47128;47.530;8.584;2023-03-23T19:49:06;14.30;94.40
61255;DHT22;47128;47.530;8.584;2023-03-23T19:51:32;14.30;94.90
61255;DHT22;47128;47.530;8.584;2023-03-23T19:53:58;14.30;94.30
61255;DHT22;47128;47.530;8.584;2023-03-23T19:56:24;14.20;94.70
61255;DHT22;47128;47.530;8.584;2023-03-23T20:01:16;14.10;95.30
61255;DHT22;47128;47.530;8.584;2023-03-23T20:03:42;14.10;95.30
61255;DHT22;47128;47.530;8.584;2023-03-23T20:06:09;14.10;95.50
61255;DHT22;47128;47.530;8.584;2023-03-23T20:08:38;14.00;95.60
61255;DHT22;47128;47.530;8.584;2023-03-23T20:11:06;14.00;96.10
61255;DHT22;47128;47.530;8.584;2023-03-23T20:13:32;14.00;96.70
61255;DHT22;47128;47.530;8.584;2023-03-23T20:15:58;14.00;96.70
61255;DHT22;47128;47.530;8.584;2023-03-23T20:20:59;13.80;97.00
61255;DHT22;47128;47.530;8.584;2023-03-23T20:23:25;13.80;96.90
61255;DHT22;47128;47.530;8.584;2023-03-23T20:25:50;13.80;96.70
61255;DHT22;47128;47.530;8.584;2023-03-23T20:28:16;13.80;96.60
61255;DHT22;47128;47.530;8.584;2023-03-23T20:30:41;13.80;96.80
61255;DHT22;47128;47.530;8.584;2023-03-23T20:33:07;13.70;97.30
61255;DHT22;47128;47.530;8.584;2023-03-23T20:35:33;13.70;97.60
61255;DHT22;47128;47.530;8.584;2023-03-23T20:37:59;13.60;98.00
61255;DHT22;47128;47.530;8.584;2023-03-23T20:40:25;13.60;97.50
61255;DHT22;47128;47.530;8.584;2023-03-23T20:42:50;13.60;97.40
61255;DHT22;47128;47.530;8.584;2023-03-23T20:45:18;13.60;98.40
61255;DHT22;47128;47.530;8.584;2023-03-23T20:47:44;13.50;98.50
61255;DHT22;47128;47.530;8.584;2023-03-23T20:50:10;13.50;99.90